New Franken, Wisconsin
Current Conditions -  °F | °C
As of 9:53 AM on Wednesday 28 Jan 2015 (Local Time) from KGRB Reporting Station
Overcast Overcast  
Wind Chill: 17°   Ceiling: 12000
Heat Index: 26°   Visibility: 10mi
Dew Point: 20°   Wind: 9mph
Humidity: 78%   Direction: 180°S
Pressure: 30.21"   Gusts: NA
Location:  44.53°N, 87.83°W
Report Text: KGRB 281553Z 18008KT 10SM SCT085 OVC120 M03/M07 A3021 RMK AO2 SLP243 T10331067
Loading
Personal Weather Stations






























Interactive Weather Map New forecast layout! Learn more

10-Day Weather Forecast

Advertisements
Track Severe Weather on mobile